createdAt,value
2022-12-18T00:01:32.612Z,91.52
2022-12-18T00:04:01.650Z,91.47
2022-12-18T00:06:30.645Z,91.25
2022-12-18T00:08:59.501Z,91.47
2022-12-18T00:11:30.597Z,91.65
2022-12-18T00:14:00.891Z,91.92
2022-12-18T00:16:31.228Z,91.88
2022-12-18T00:18:59.225Z,91.77
2022-12-18T00:21:28.111Z,91.66
2022-12-18T00:23:55.622Z,91.51
2022-12-18T00:26:30.933Z,91.77
2022-12-18T00:29:07.621Z,91.77
2022-12-18T00:31:35.234Z,91.66
2022-12-18T00:34:03.437Z,91.45
2022-12-18T00:36:35.283Z,91.71
2022-12-18T00:39:05.530Z,91.64
2022-12-18T00:41:52.266Z,91.31
2022-12-18T00:44:20.312Z,91.36
2022-12-18T00:46:48.966Z,91.42
2022-12-18T00:49:19.960Z,91.44
2022-12-18T00:51:48.065Z,91.46
2022-12-18T00:54:16.334Z,91.61
2022-12-18T00:56:49.476Z,91.32
2022-12-18T00:59:19.071Z,91.31
2022-12-18T01:01:47.852Z,91.81
2022-12-18T01:04:15.202Z,91.38
2022-12-18T01:06:46.220Z,91.71
2022-12-18T01:09:13.409Z,91.72
2022-12-18T01:11:40.973Z,91.71
2022-12-18T01:14:08.252Z,91.68
2022-12-18T01:16:36.785Z,91.64
2022-12-18T01:19:05.397Z,91.69
2022-12-18T01:21:32.535Z,91.43
2022-12-18T01:24:04.975Z,91.48
2022-12-18T01:26:32.113Z,91.82
2022-12-18T01:28:59.603Z,91.57
2022-12-18T01:31:33.260Z,91.69
2022-12-18T01:34:09.642Z,91.52
2022-12-18T01:36:39.984Z,91.37
2022-12-18T01:39:13.769Z,91.32
2022-12-18T01:42:02.309Z,91.44
2022-12-18T01:44:59.691Z,91.37
2022-12-18T01:47:31.970Z,91.38
2022-12-18T01:50:07.394Z,91.53
2022-12-18T01:52:37.008Z,91.50
2022-12-18T01:55:07.013Z,91.74
2022-12-18T01:57:35.289Z,91.37
2022-12-18T02:00:13.270Z,91.36
2022-12-18T02:02:45.192Z,91.62
2022-12-18T02:05:20.126Z,91.76
2022-12-18T02:08:35.401Z,91.25
2022-12-18T02:11:22.384Z,91.35
2022-12-18T02:14:07.174Z,91.45
2022-12-18T02:16:47.071Z,91.37
2022-12-18T02:20:06.988Z,91.67
2022-12-18T02:22:53.124Z,91.40
2022-12-18T02:26:02.594Z,91.46
2022-12-18T02:28:36.057Z,91.58
2022-12-18T02:31:14.997Z,91.42
2022-12-18T02:33:46.279Z,91.65
2022-12-18T02:36:17.548Z,91.63
2022-12-18T02:38:48.065Z,91.45
2022-12-18T02:41:18.923Z,91.11
2022-12-18T02:43:57.608Z,91.34
2022-12-18T02:46:37.351Z,91.56
2022-12-18T02:49:42.959Z,91.53
2022-12-18T02:52:55.763Z,91.40
2022-12-18T02:56:06.620Z,91.45
2022-12-18T02:58:55.619Z,91.69
2022-12-18T03:01:42.897Z,91.68
2022-12-18T03:04:28.518Z,91.26
2022-12-18T03:07:04.257Z,91.52
2022-12-18T03:09:42.092Z,91.40
2022-12-18T03:12:35.449Z,91.31
2022-12-18T03:15:18.105Z,91.63
2022-12-18T03:18:02.845Z,91.86
2022-12-18T03:20:35.188Z,91.90
2022-12-18T03:23:15.470Z,91.53
2022-12-18T03:25:49.924Z,91.58
2022-12-18T03:28:22.903Z,91.50
2022-12-18T03:31:01.794Z,91.21
2022-12-18T03:33:45.063Z,91.53
2022-12-18T03:36:12.648Z,91.33
2022-12-18T03:38:39.963Z,91.51
2022-12-18T03:41:31.423Z,91.46
2022-12-18T03:44:27.279Z,91.22
2022-12-18T03:47:28.774Z,91.17
2022-12-18T03:50:37.375Z,91.30
2022-12-18T03:53:37.716Z,91.12
2022-12-18T03:56:07.529Z,91.19
2022-12-18T03:58:43.149Z,91.44
2022-12-18T04:01:21.932Z,91.57
2022-12-18T04:03:51.807Z,91.45
2022-12-18T04:06:21.963Z,91.62
2022-12-18T04:08:49.663Z,91.24
2022-12-18T04:11:21.325Z,91.48
2022-12-18T04:13:50.187Z,91.42
2022-12-18T04:16:22.501Z,91.51
2022-12-18T04:18:53.933Z,91.56
2022-12-18T04:21:22.426Z,91.42
2022-12-18T04:23:50.444Z,91.69
2022-12-18T04:26:20.461Z,91.72
2022-12-18T04:29:06.106Z,91.66
2022-12-18T04:31:33.318Z,91.76
2022-12-18T04:34:01.147Z,91.63
2022-12-18T04:36:29.676Z,91.83
2022-12-18T04:38:57.058Z,91.85
2022-12-18T04:41:24.263Z,91.89
2022-12-18T04:43:53.324Z,91.85
2022-12-18T04:46:20.505Z,92.14
2022-12-18T04:48:48.003Z,92.15
2022-12-18T04:51:15.468Z,92.08
2022-12-18T04:53:43.025Z,92.00
2022-12-18T04:56:15.043Z,92.00
2022-12-18T04:58:44.790Z,92.08
2022-12-18T05:01:14.433Z,91.90
2022-12-18T05:03:42.389Z,92.05
2022-12-18T05:06:10.453Z,92.09
2022-12-18T05:08:37.982Z,91.96
2022-12-18T05:11:16.656Z,92.14
2022-12-18T05:13:46.162Z,91.96
2022-12-18T05:16:15.036Z,92.39
2022-12-18T05:18:43.133Z,91.91
2022-12-18T05:21:11.203Z,91.95
2022-12-18T05:23:38.493Z,92.18
2022-12-18T05:26:08.936Z,91.97
2022-12-18T05:28:37.568Z,92.02
2022-12-18T05:31:06.316Z,92.01
2022-12-18T05:33:35.875Z,92.05
2022-12-18T05:36:08.131Z,92.07
2022-12-18T05:38:38.764Z,92.38
2022-12-18T05:41:11.827Z,91.96
2022-12-18T05:43:42.839Z,91.92
2022-12-18T05:46:16.307Z,92.23
2022-12-18T05:48:44.184Z,92.41
2022-12-18T05:51:16.485Z,92.22
2022-12-18T05:53:44.423Z,92.30
2022-12-18T05:56:18.614Z,91.99
2022-12-18T05:58:46.210Z,92.48
2022-12-18T06:01:27.401Z,92.61
2022-12-18T06:03:55.780Z,92.63
2022-12-18T06:06:28.591Z,92.42
2022-12-18T06:08:57.529Z,92.42
2022-12-18T06:11:27.428Z,92.38
2022-12-18T06:13:59.024Z,92.65
2022-12-18T06:16:28.829Z,92.62
2022-12-18T06:19:01.054Z,92.41
2022-12-18T06:21:29.709Z,92.83
2022-12-18T06:23:57.369Z,92.87
2022-12-18T06:26:28.246Z,93.04
2022-12-18T06:28:57.810Z,93.07
2022-12-18T06:31:26.986Z,93.11
2022-12-18T06:33:54.411Z,93.08
2022-12-18T06:36:23.166Z,92.89
2022-12-18T06:38:50.785Z,93.06
2022-12-18T06:41:21.434Z,92.97
2022-12-18T06:43:48.557Z,92.85
2022-12-18T06:46:15.704Z,92.59
2022-12-18T06:48:44.087Z,92.83
2022-12-18T06:51:11.222Z,92.81
2022-12-18T06:53:38.643Z,92.68
2022-12-18T06:56:10.516Z,92.43
2022-12-18T06:58:40.031Z,92.34
2022-12-18T07:01:11.542Z,92.45
2022-12-18T07:03:41.908Z,92.40
2022-12-18T07:06:20.370Z,92.75
2022-12-18T07:08:49.885Z,92.39
2022-12-18T07:11:18.762Z,92.66
2022-12-18T07:13:47.519Z,92.61
2022-12-18T07:16:25.204Z,92.37
2022-12-18T07:18:56.078Z,92.46
2022-12-18T07:21:25.362Z,92.34
2022-12-18T07:23:52.815Z,92.35
2022-12-18T07:26:22.029Z,92.25
2022-12-18T07:28:49.485Z,92.41
2022-12-18T07:31:21.615Z,92.20
2022-12-18T07:33:50.334Z,92.52
2022-12-18T07:36:17.777Z,92.58
2022-12-18T07:38:49.312Z,92.55
2022-12-18T07:41:19.759Z,92.75
2022-12-18T07:43:47.493Z,92.65
2022-12-18T07:46:16.727Z,92.64
2022-12-18T07:48:46.255Z,92.85
2022-12-18T07:51:18.614Z,92.96
2022-12-18T07:53:46.051Z,92.89
2022-12-18T07:56:30.359Z,92.83
2022-12-18T07:59:00.076Z,92.86
2022-12-18T08:01:28.301Z,92.60
2022-12-18T08:03:55.636Z,92.43
2022-12-18T08:06:24.303Z,92.28
2022-12-18T08:08:55.541Z,92.12
2022-12-18T08:11:26.099Z,92.27
2022-12-18T08:13:54.157Z,91.94
2022-12-18T08:16:22.960Z,91.86
2022-12-18T08:18:54.179Z,91.66
2022-12-18T08:21:25.862Z,91.40
2022-12-18T08:23:55.669Z,91.26
2022-12-18T08:26:25.145Z,91.24
2022-12-18T08:28:52.501Z,91.21
2022-12-18T08:31:20.263Z,90.74
2022-12-18T08:33:51.991Z,90.52
2022-12-18T08:36:20.496Z,91.31
2022-12-18T08:38:48.273Z,92.30
2022-12-18T08:41:18.974Z,92.08
2022-12-18T08:44:05.134Z,90.80
2022-12-18T08:46:40.774Z,90.42
2022-12-18T08:49:10.390Z,88.54
2022-12-18T08:51:38.894Z,87.69
2022-12-18T08:54:07.340Z,87.34
2022-12-18T08:56:35.233Z,86.04
2022-12-18T08:59:02.437Z,85.24
2022-12-18T09:01:29.623Z,84.48
2022-12-18T09:03:56.934Z,84.14
2022-12-18T09:06:24.592Z,83.19
2022-12-18T09:08:51.632Z,82.71
2022-12-18T09:11:26.324Z,81.51
2022-12-18T09:13:55.227Z,81.10
2022-12-18T09:16:30.129Z,80.61
2022-12-18T09:19:00.682Z,79.96
2022-12-18T09:21:37.509Z,80.02
2022-12-18T09:24:08.870Z,79.35
2022-12-18T09:26:37.413Z,79.17
2022-12-18T09:29:05.581Z,78.75
2022-12-18T09:31:32.630Z,79.20
2022-12-18T09:34:01.703Z,79.45
2022-12-18T09:36:28.828Z,80.11
2022-12-18T09:38:55.900Z,80.58
2022-12-18T09:41:54.645Z,80.74
2022-12-18T09:44:37.766Z,80.79
2022-12-18T09:47:26.664Z,81.03
2022-12-18T09:50:06.314Z,80.83
2022-12-18T09:52:49.232Z,80.81
2022-12-18T09:55:42.838Z,80.79
2022-12-18T09:58:11.151Z,80.91
2022-12-18T10:00:38.459Z,80.96
2022-12-18T10:03:15.603Z,80.88
2022-12-18T10:06:04.049Z,80.86
2022-12-18T10:09:17.836Z,80.40
2022-12-18T10:11:58.452Z,79.72
2022-12-18T10:14:41.150Z,79.69
2022-12-18T10:17:45.322Z,79.23
2022-12-18T10:20:48.742Z,78.85
2022-12-18T10:23:29.242Z,78.66
2022-12-18T10:26:05.956Z,77.83
2022-12-18T10:28:40.159Z,78.12
2022-12-18T10:31:08.739Z,77.72
2022-12-18T10:33:35.906Z,77.91
2022-12-18T10:36:04.643Z,78.11
2022-12-18T10:38:33.806Z,78.10
2022-12-18T10:41:27.594Z,78.34
2022-12-18T10:44:23.906Z,77.34
2022-12-18T10:47:11.853Z,77.36
2022-12-18T10:49:50.709Z,76.83
2022-12-18T10:52:22.578Z,77.10
2022-12-18T10:54:59.174Z,76.88
2022-12-18T10:57:39.853Z,77.06
2022-12-18T11:00:28.668Z,76.22
2022-12-18T11:02:57.972Z,75.80
2022-12-18T11:05:34.466Z,75.41
2022-12-18T11:08:02.590Z,75.69
2022-12-18T11:10:38.643Z,74.49
2022-12-18T11:13:22.966Z,74.01
2022-12-18T11:15:51.206Z,73.91
2022-12-18T11:18:30.914Z,73.83
2022-12-18T11:21:09.771Z,73.19
2022-12-18T11:23:49.674Z,73.17
2022-12-18T11:26:17.249Z,73.61
2022-12-18T11:29:12.106Z,73.06
2022-12-18T11:31:39.319Z,73.45
2022-12-18T11:34:32.147Z,73.12
2022-12-18T11:37:04.010Z,73.71
2022-12-18T11:39:46.037Z,72.90
2022-12-18T11:42:45.710Z,72.51
2022-12-18T11:45:13.845Z,73.26
2022-12-18T11:48:25.606Z,71.60
2022-12-18T11:51:04.019Z,71.64
2022-12-18T11:53:31.360Z,71.62
2022-12-18T11:56:40.332Z,71.82
2022-12-18T11:59:33.851Z,71.68
2022-12-18T12:02:25.717Z,71.96
2022-12-18T12:05:52.952Z,71.06
2022-12-18T12:09:15.384Z,71.71
2022-12-18T12:12:00.086Z,70.91
2022-12-18T12:14:30.243Z,70.64
2022-12-18T12:17:19.240Z,70.26
2022-12-18T12:20:17.430Z,70.75
2022-12-18T12:22:59.479Z,70.22
2022-12-18T12:26:33.692Z,70.19
2022-12-18T12:29:32.317Z,70.65
2022-12-18T12:32:39.820Z,69.43
2022-12-18T12:35:23.443Z,70.19
2022-12-18T12:38:29.603Z,69.53
2022-12-18T12:41:32.466Z,69.38
2022-12-18T12:44:06.201Z,69.97
2022-12-18T12:46:41.975Z,69.39
2022-12-18T12:49:28.142Z,69.41
2022-12-18T12:52:16.075Z,70.08
2022-12-18T12:54:45.775Z,70.09
2022-12-18T12:57:41.070Z,69.58
2022-12-18T13:00:20.193Z,69.39
2022-12-18T13:03:37.954Z,69.15
2022-12-18T13:06:44.675Z,70.04
2022-12-18T13:09:12.245Z,70.02
2022-12-18T13:12:03.235Z,70.29
2022-12-18T13:14:37.237Z,70.28
2022-12-18T13:17:21.048Z,70.46
2022-12-18T13:20:15.648Z,70.60
2022-12-18T13:22:50.740Z,69.49
2022-12-18T13:25:39.640Z,70.20
2022-12-18T13:28:47.798Z,69.79
2022-12-18T13:31:39.751Z,69.28
2022-12-18T13:34:27.802Z,69.46
2022-12-18T13:37:18.108Z,70.00
2022-12-18T13:39:45.378Z,69.90
2022-12-18T13:42:33.167Z,70.20
2022-12-18T13:45:01.304Z,69.38
2022-12-18T13:47:35.897Z,69.25
2022-12-18T13:50:11.346Z,69.26
2022-12-18T13:52:40.980Z,69.24
2022-12-18T13:55:21.779Z,69.51
2022-12-18T13:57:49.439Z,69.65
2022-12-18T14:00:26.213Z,70.04
2022-12-18T14:02:53.577Z,70.26
2022-12-18T14:05:37.004Z,69.41
2022-12-18T14:08:15.291Z,69.55
2022-12-18T14:10:49.770Z,69.71
2022-12-18T14:13:35.888Z,69.80
2022-12-18T14:16:06.814Z,69.79
2022-12-18T14:18:50.110Z,69.93
2022-12-18T14:21:28.743Z,70.01
2022-12-18T14:24:22.085Z,70.26
2022-12-18T14:26:51.475Z,70.12
2022-12-18T14:29:31.628Z,69.35
2022-12-18T14:32:18.340Z,69.70
2022-12-18T14:34:56.952Z,69.40
2022-12-18T14:37:28.116Z,69.60
2022-12-18T14:40:10.984Z,69.84
2022-12-18T14:42:38.898Z,69.67
2022-12-18T14:45:44.473Z,69.79
2022-12-18T14:48:25.664Z,69.61
2022-12-18T14:51:01.124Z,69.35
2022-12-18T14:53:52.063Z,69.25
2022-12-18T14:56:26.184Z,69.19
2022-12-18T14:58:59.052Z,69.04
2022-12-18T15:01:36.073Z,69.38
2022-12-18T15:04:06.420Z,69.64
2022-12-18T15:06:38.523Z,69.75
2022-12-18T15:09:24.292Z,69.94
2022-12-18T15:12:02.583Z,69.80
2022-12-18T15:14:42.601Z,70.12
2022-12-18T15:17:21.767Z,70.22
2022-12-18T15:19:54.399Z,70.57
2022-12-18T15:22:42.626Z,70.81
2022-12-18T15:25:38.263Z,70.85
2022-12-18T15:28:25.449Z,71.01
2022-12-18T15:31:13.289Z,71.18
2022-12-18T15:33:53.922Z,71.33
2022-12-18T15:36:26.280Z,71.38
2022-12-18T15:39:06.896Z,71.37
2022-12-18T15:41:37.695Z,71.19
2022-12-18T15:44:28.879Z,71.19
2022-12-18T15:46:57.939Z,71.56
2022-12-18T15:49:25.320Z,71.87
2022-12-18T15:52:02.659Z,71.96
2022-12-18T15:54:48.191Z,72.33
2022-12-18T15:57:27.759Z,72.17
2022-12-18T15:59:59.001Z,72.09
2022-12-18T16:02:27.338Z,72.41
2022-12-18T16:04:55.127Z,72.34
2022-12-18T16:07:24.664Z,72.24
2022-12-18T16:09:53.165Z,72.09
2022-12-18T16:12:26.414Z,72.15
2022-12-18T16:14:53.567Z,72.37
2022-12-18T16:17:20.965Z,72.29
2022-12-18T16:19:48.049Z,71.82
2022-12-18T16:22:25.674Z,72.06
2022-12-18T16:24:54.443Z,72.20
2022-12-18T16:27:23.469Z,72.19
2022-12-18T16:29:51.677Z,71.90
2022-12-18T16:32:25.459Z,72.11
2022-12-18T16:34:52.639Z,72.39
2022-12-18T16:37:19.985Z,72.30
2022-12-18T16:39:46.991Z,72.19
2022-12-18T16:42:21.052Z,72.29
2022-12-18T16:45:16.444Z,72.38
2022-12-18T16:47:43.901Z,72.48
2022-12-18T16:50:12.028Z,72.67
2022-12-18T16:52:39.380Z,72.57
2022-12-18T16:55:07.225Z,72.71
2022-12-18T16:57:34.472Z,72.95
2022-12-18T17:00:05.617Z,72.75
2022-12-18T17:02:33.898Z,72.90
2022-12-18T17:05:01.331Z,73.12
2022-12-18T17:07:29.477Z,73.21
2022-12-18T17:09:57.891Z,73.05
2022-12-18T17:12:26.842Z,73.20
2022-12-18T17:14:53.911Z,73.14
2022-12-18T17:17:22.702Z,73.17
2022-12-18T17:19:52.787Z,73.03
2022-12-18T17:22:23.143Z,73.40
2022-12-18T17:24:50.258Z,73.40
2022-12-18T17:27:17.387Z,73.44
2022-12-18T17:29:47.822Z,73.46
2022-12-18T17:32:17.871Z,73.66
2022-12-18T17:34:46.675Z,73.69
2022-12-18T17:37:14.595Z,73.69
2022-12-18T17:39:42.167Z,73.42
2022-12-18T17:42:15.266Z,73.65
2022-12-18T17:44:44.742Z,73.82
2022-12-18T17:47:13.807Z,73.85
2022-12-18T17:49:40.977Z,74.11
2022-12-18T17:52:08.160Z,74.31
2022-12-18T17:54:39.310Z,74.29
2022-12-18T17:57:06.423Z,74.30
2022-12-18T17:59:33.430Z,74.29
2022-12-18T18:02:00.439Z,74.17
2022-12-18T18:04:29.999Z,74.24
2022-12-18T18:06:56.998Z,74.60
2022-12-18T18:09:25.033Z,74.36
2022-12-18T18:12:11.092Z,74.25
2022-12-18T18:14:41.376Z,74.20
2022-12-18T18:17:08.929Z,74.26
2022-12-18T18:19:36.273Z,74.64
2022-12-18T18:22:03.665Z,74.71
2022-12-18T18:24:34.312Z,74.64
2022-12-18T18:27:04.444Z,74.76
2022-12-18T18:29:31.598Z,74.76
2022-12-18T18:31:59.366Z,74.82
2022-12-18T18:34:29.537Z,74.62
2022-12-18T18:37:01.313Z,74.73
2022-12-18T18:39:29.675Z,74.67
2022-12-18T18:41:56.954Z,74.64
2022-12-18T18:44:26.103Z,74.76
2022-12-18T18:46:58.389Z,74.86
2022-12-18T18:49:28.025Z,75.05
2022-12-18T18:51:57.383Z,75.08
2022-12-18T18:54:25.606Z,74.97
2022-12-18T18:59:41.261Z,75.31
2022-12-18T19:02:14.345Z,75.33
2022-12-18T19:04:45.671Z,75.56
2022-12-18T19:07:24.063Z,75.27
2022-12-18T19:10:04.459Z,75.49
2022-12-18T19:12:51.787Z,75.45
2022-12-18T19:15:19.312Z,75.18
2022-12-18T19:17:50.081Z,75.18
2022-12-18T19:20:21.437Z,75.42
2022-12-18T19:22:48.616Z,75.35
2022-12-18T19:25:37.147Z,75.51
2022-12-18T19:28:15.818Z,75.61
2022-12-18T19:30:48.836Z,75.68
2022-12-18T19:33:44.165Z,75.66
2022-12-18T19:36:22.489Z,75.86
2022-12-18T19:38:51.864Z,75.84
2022-12-18T19:41:20.663Z,75.62
2022-12-18T19:43:49.323Z,75.87
2022-12-18T19:46:20.760Z,76.02
2022-12-18T19:48:48.767Z,75.75
2022-12-18T19:51:22.314Z,75.79
2022-12-18T19:53:53.679Z,75.86
2022-12-18T19:56:28.867Z,75.90
2022-12-18T19:58:56.013Z,75.89
2022-12-18T20:01:25.716Z,75.70
2022-12-18T20:03:54.487Z,75.72
2022-12-18T20:06:36.914Z,75.83
2022-12-18T20:09:06.697Z,76.19
2022-12-18T20:11:41.530Z,76.55
2022-12-18T20:14:14.529Z,77.03
2022-12-18T20:16:48.279Z,77.49
2022-12-18T20:19:15.940Z,77.78
2022-12-18T20:21:44.363Z,78.09
2022-12-18T20:24:11.501Z,78.32
2022-12-18T20:26:39.003Z,78.56
2022-12-18T20:29:06.756Z,78.58
2022-12-18T20:31:34.008Z,79.00
2022-12-18T20:34:01.771Z,79.02
2022-12-18T20:36:30.889Z,79.34
2022-12-18T20:39:02.618Z,80.02
2022-12-18T20:41:38.186Z,80.32
2022-12-18T20:44:22.389Z,80.71
2022-12-18T20:46:56.782Z,81.34
2022-12-18T20:49:26.725Z,81.75
2022-12-18T20:51:57.189Z,82.09
2022-12-18T20:54:30.115Z,82.44
2022-12-18T20:56:57.930Z,82.69
2022-12-18T20:59:26.127Z,83.21
2022-12-18T21:01:55.530Z,83.50
2022-12-18T21:04:24.108Z,83.94
2022-12-18T21:06:57.908Z,84.05
2022-12-18T21:09:35.919Z,84.28
2022-12-18T21:12:40.482Z,84.53
2022-12-18T21:15:11.373Z,84.94
2022-12-18T21:17:44.744Z,85.15
2022-12-18T21:20:17.505Z,85.54
2022-12-18T21:22:46.818Z,85.70
2022-12-18T21:25:14.989Z,86.01
2022-12-18T21:27:41.951Z,85.90
2022-12-18T21:30:09.891Z,86.57
2022-12-18T21:32:36.999Z,86.63
2022-12-18T21:35:04.447Z,87.13
2022-12-18T21:37:31.555Z,87.34
2022-12-18T21:39:58.564Z,87.30
2022-12-18T21:42:44.265Z,87.54
2022-12-18T21:45:12.301Z,87.67
2022-12-18T21:47:39.706Z,87.98
2022-12-18T21:50:07.223Z,88.09
2022-12-18T21:52:34.241Z,88.34
2022-12-18T21:55:08.904Z,88.55
2022-12-18T21:57:39.403Z,88.51
2022-12-18T22:00:17.381Z,88.61
2022-12-18T22:02:46.034Z,88.68
2022-12-18T22:05:13.232Z,88.76
2022-12-18T22:07:40.425Z,88.85
2022-12-18T22:10:08.235Z,89.10
2022-12-18T22:12:42.894Z,89.36
2022-12-18T22:15:21.248Z,89.20
2022-12-18T22:17:50.687Z,89.35
2022-12-18T22:20:20.182Z,89.33
2022-12-18T22:22:51.537Z,89.46
2022-12-18T22:25:19.072Z,89.46
2022-12-18T22:28:06.097Z,89.62
2022-12-18T22:30:33.168Z,89.70
2022-12-18T22:33:00.754Z,89.99
2022-12-18T22:35:27.905Z,90.13
2022-12-18T22:37:55.178Z,90.12
2022-12-18T22:40:26.984Z,90.29
2022-12-18T22:42:55.048Z,90.23
2022-12-18T22:45:22.063Z,90.36
2022-12-18T22:47:49.406Z,90.41
2022-12-18T22:50:16.458Z,90.73
2022-12-18T22:52:43.724Z,90.83
2022-12-18T22:55:11.826Z,90.90
2022-12-18T22:57:40.662Z,90.83
2022-12-18T23:00:14.263Z,90.97
2022-12-18T23:02:42.461Z,91.24
2022-12-18T23:05:09.628Z,91.43
2022-12-18T23:07:36.559Z,91.46
2022-12-18T23:10:03.972Z,91.51
2022-12-18T23:12:30.974Z,91.58
2022-12-18T23:14:59.873Z,91.65
2022-12-18T23:17:26.932Z,91.71
2022-12-18T23:19:53.852Z,91.81
2022-12-18T23:22:20.893Z,92.11
2022-12-18T23:24:47.918Z,92.35
2022-12-18T23:27:15.005Z,92.53
2022-12-18T23:29:41.969Z,92.30
2022-12-18T23:32:08.953Z,92.93
2022-12-18T23:34:35.985Z,92.82
2022-12-18T23:37:03.771Z,92.89
2022-12-18T23:39:31.017Z,93.11
2022-12-18T23:41:59.231Z,92.98
2022-12-18T23:44:26.459Z,93.39
2022-12-18T23:46:54.671Z,93.36
2022-12-18T23:49:22.270Z,93.39
2022-12-18T23:51:49.255Z,93.40
2022-12-18T23:54:16.364Z,93.46
2022-12-18T23:56:43.482Z,93.37
2022-12-18T23:59:16.277Z,93.37
